Aérodrome :
LOGIN :

S'inscrire | Disclaimer

   EN    FR    IT 

 










Légende :    VFR   VFR Marginal   IFR   IFR Intensif   IFR Très Intensif
Visi : 
Plafond : 
>= 8 km
>= 3000ft
5 à 8 km
1000 à 3000 ft
1500m à 5 km
500 à 1000 ft
800 à 1500m
200 à 500 ft
< 800m
< 200 ft
Symboles :   Orages  Brouillard  Fortes neiges  Fortes précipitations  Vent > 20 kt
SIGMETs :   Divers  Orages  Givrage  Turbulence  Onde Orograph.  Cendres Volcan.






- Altitude de l'aérodrome : 13 ft
- Code IATA : CEQ


LFMD - Cannes Mandelieu

DERNIER METAR :
  • 141430Z AUTO 08011KT 020V130 9999 RA FEW036/// BKN046/// OVC054/// ///CB 13/08 Q1000 TEMPO 09025G35KT 4000 TSRA

METARs EXPIRÉS :
  • 141400Z AUTO 09009G19KT 010V160 9999 -RA SCT032/// BKN041/// BKN052/// ///CB 14/07 Q1000 TEMPO 09025G35KT 4000 TSRA
  • 141330Z AUTO 10012G23KT 040V150 9999 BKN035/// BKN042/// OVC058/// ///TCU 14/07 Q1001 TEMPO 09025G35KT 4000 TSRA SCT010 SCT020CB BKN025
  • 141230Z AUTO 09006KT 010V150 9999 FEW037 OVC056 14/06 Q1002 TEMPO 09025G35KT 4000 TSRA SCT010 SCT020CB BKN025
  • 141200Z AUTO 10005KT 040V170 9999 FEW036 SCT044 BKN064 14/06 Q1003 TEMPO 09025G35KT 4000 TSRA SCT010 SCT020CB BKN025

TAF TAF LFMD
Valide du 14 à 09h jusqu'au 15 à 09h UTC


140800Z 1409/1509 09010KT 9999 BKN040 BKN130
BECMG 1413/1415 RA OVC030
TEMPO 1413/1502 09025G35KT 4000 TSRA SCT010 SCT020CB BKN025
PROB40
TEMPO 1418/1424 VRB30G40KT 2000 +TSRA BKN012CB
BECMG 1500/1502 34015KT NSW
BECMG 1507/1509 24010KT FEW040
ATIS : +33 4 93 48 73 23



MET'MAP, la Météo Aéronautique d'un coup d'oeil ! - Copyright ORBIFLY Décembre 2007 - Disclaimer

ORBIFLY MET'MAP TEAM :

Programmation & Développement : Alexandra Zaïnal
Conception & Développement : Baudouin d'Aumeries
Co-Programmation & Développement : Marc-Olivier Méhu
Soutien technique & logistique : Manuel Goepfert

Contact : metmap@orbifly.com




SOURCES & CREDITS :

   NOAA